Time;durP1;ratioP1;P1;durP2;ratioP2;P2;SDS_P1;SDS_P2;PMS_P1;PMS_P2;Temp;Humidity;BMP_temperature;BMP_pressure;BME280_temperature;BME280_humidity;BME280_pressure;Samples;Min_cycle;Max_cycle;Signal;HPM_P1;HPM_P2
2020/01/18 00:01:04;;;;;;;15.7;7.8;;;;;;;3.91;66.78223;942.5592;;;;
2020/01/18 00:03:28;;;;;;;12.8;7.6;;;;;;;3.71;67.59277;942.5608;;;;
2020/01/18 00:05:53;;;;;;;13;7.8;;;;;;;3.79;67.44824;942.584;;;;
2020/01/18 00:08:18;;;;;;;14;7.5;;;;;;;3.98;66.91699;942.5764;;;;
2020/01/18 00:10:43;;;;;;;13;7.2;;;;;;;4.08;66.44727;942.6145;;;;
2020/01/18 00:13:08;;;;;;;10.6;6.4;;;;;;;3.96;66.59766;942.6195;;;;
2020/01/18 00:15:34;;;;;;;11.3;6.4;;;;;;;4.07;66.53809;942.6332;;;;
2020/01/18 00:17:59;;;;;;;12.2;5.9;;;;;;;4.21;65.97363;942.6223;;;;
2020/01/18 00:20:24;;;;;;;9.7;6.3;;;;;;;4.29;65.79492;942.6247;;;;
2020/01/18 00:22:49;;;;;;;10.5;6.4;;;;;;;4.33;65.63184;942.6628;;;;
2020/01/18 00:25:14;;;;;;;10.4;6.2;;;;;;;4.34;65.74609;942.6213;;;;
2020/01/18 00:27:39;;;;;;;11.1;6.2;;;;;;;4.36;65.90625;942.5447;;;;
2020/01/18 00:30:05;;;;;;;10.5;6;;;;;;;4.37;65.71582;942.5585;;;;
2020/01/18 00:32:29;;;;;;;13.2;6.1;;;;;;;4.36;65.87207;942.533;;;;
2020/01/18 00:34:55;;;;;;;11.8;6.2;;;;;;;4.34;66.00488;942.6364;;;;
2020/01/18 00:37:20;;;;;;;12.1;6.2;;;;;;;4.44;65.96484;942.6839;;;;
2020/01/18 00:39:45;;;;;;;10.7;6.3;;;;;;;4.47;65.6875;942.7189;;;;
2020/01/18 00:42:10;;;;;;;9.2;6.1;;;;;;;4.47;66.05957;942.7717;;;;
2020/01/18 00:44:35;;;;;;;9.8;5.9;;;;;;;4.43;65.625;942.8293;;;;
2020/01/18 00:47:00;;;;;;;8.9;5.5;;;;;;;4.36;65.64746;942.8836;;;;
2020/01/18 00:49:25;;;;;;;9.3;5.2;;;;;;;4.29;66.03125;942.8502;;;;
2020/01/18 00:51:50;;;;;;;8.6;5.4;;;;;;;4.28;66.52539;942.9297;;;;
2020/01/18 00:54:19;;;;;;;7.4;4.4;;;;;;;4.24;66.21387;942.9359;;;;
2020/01/18 00:56:51;;;;;;;7.9;4.3;;;;;;;4.22;66.52637;942.9138;;;;
2020/01/18 01:01:37;;;;;;;7.9;4.6;;;;;;;4.02;68.11523;942.9108;;;;
2020/01/18 01:03:57;;;;;;;7.4;4.8;;;;;;;4.15;68.10156;942.9648;;;;
2020/01/18 01:06:22;;;;;;;7.5;4.6;;;;;;;4.28;67.52539;943.0421;;;;
2020/01/18 01:08:47;;;;;;;9;5.2;;;;;;;4.21;67.3916;943.074;;;;
2020/01/18 01:11:12;;;;;;;9.4;5.4;;;;;;;4.09;67.51758;943.1136;;;;
2020/01/18 01:13:37;;;;;;;10.1;5.4;;;;;;;4.08;67.65137;943.1361;;;;
2020/01/18 01:16:02;;;;;;;9.6;5.5;;;;;;;4.2;67.74902;943.1551;;;;
2020/01/18 01:18:28;;;;;;;7.7;5;;;;;;;4.38;68.16016;943.1777;;;;
2020/01/18 01:20:53;;;;;;;9.3;5.2;;;;;;;4.52;69.19629;943.2601;;;;
2020/01/18 01:24:13;;;;;;;7.6;4.9;;;;;;;4.57;69.30664;943.233;;;;
2020/01/18 01:27:24;;;;;;;8.4;4.9;;;;;;;4.66;69.16309;943.2047;;;;
2020/01/18 01:30:35;;;;;;;7.6;4.7;;;;;;;4.69;69.25977;943.3131;;;;
2020/01/18 01:34:04;;;;;;;9;4.8;;;;;;;4.71;70.70313;943.3178;;;;
2020/01/18 01:37:14;;;;;;;9.2;5.4;;;;;;;4.67;70.91113;943.4007;;;;
2020/01/18 01:40:25;;;;;;;9;5.6;;;;;;;4.54;71.53125;943.4717;;;;
2020/01/18 01:43:36;;;;;;;9.6;5.4;;;;;;;4.51;71.81934;943.4958;;;;
2020/01/18 01:46:47;;;;;;;9.3;5.4;;;;;;;4.38;72.10059;943.4633;;;;
2020/01/18 01:49:58;;;;;;;9.2;5;;;;;;;4.41;72.24023;943.597;;;;
2020/01/18 01:53:08;;;;;;;8.4;5.2;;;;;;;4.45;72.58398;943.598;;;;
2020/01/18 01:56:19;;;;;;;8.6;4.5;;;;;;;4.32;73.55273;943.6356;;;;
2020/01/18 01:59:30;;;;;;;6.1;4.2;;;;;;;4.13;73.83496;943.6716;;;;
2020/01/18 02:02:42;;;;;;;7.5;4.2;;;;;;;4.02;74.1084;943.6838;;;;
2020/01/18 02:05:52;;;;;;;6.2;4.1;;;;;;;4.08;74.77246;943.7399;;;;
2020/01/18 02:09:04;;;;;;;7.5;4.9;;;;;;;4.26;75.35547;943.7935;;;;
2020/01/18 02:12:15;;;;;;;7.7;5;;;;;;;4.18;75.99219;943.8699;;;;
2020/01/18 02:15:26;;;;;;;8.4;5.3;;;;;;;4.3;75.62012;943.9755;;;;
2020/01/18 02:18:36;;;;;;;7.8;5.2;;;;;;;4.46;74.96094;944.0486;;;;
2020/01/18 02:21:47;;;;;;;9;5.2;;;;;;;4.34;75.59277;944.0764;;;;
2020/01/18 02:24:58;;;;;;;9.2;5.4;;;;;;;4.36;76.24902;944.1017;;;;
2020/01/18 02:28:08;;;;;;;9.1;5.2;;;;;;;4.37;76.44238;944.1122;;;;
2020/01/18 02:31:19;;;;;;;7.5;5.2;;;;;;;4.3;76.99219;944.1172;;;;
2020/01/18 02:33:44;;;;;;;8.1;5.7;;;;;;;4.33;76.97363;944.1642;;;;
2020/01/18 02:36:09;;;;;;;9;5.9;;;;;;;4.39;76.875;944.1739;;;;
2020/01/18 02:38:34;;;;;;;11.4;6.5;;;;;;;4.38;76.9502;944.1719;;;;
2020/01/18 02:40:59;;;;;;;11.7;6.4;;;;;;;4.28;77.19238;944.1546;;;;
2020/01/18 02:44:38;;;;;;;12.3;7;;;;;;;4.21;77.54004;944.1475;;;;
2020/01/18 02:47:48;;;;;;;10;6.3;;;;;;;4.2;77.67285;944.1609;;;;
2020/01/18 02:50:59;;;;;;;12;7.6;;;;;;;4.05;78.63477;944.2822;;;;
2020/01/18 02:54:10;;;;;;;11.2;7;;;;;;;3.98;78.96973;944.2797;;;;
2020/01/18 02:57:20;;;;;;;11.7;7.4;;;;;;;3.66;80.40527;944.3055;;;;
2020/01/18 03:00:31;;;;;;;10;6.7;;;;;;;3.46;81.80371;944.3502;;;;
2020/01/18 03:02:56;;;;;;;9.1;6.4;;;;;;;3.7;81.35645;944.4102;;;;
2020/01/18 03:05:21;;;;;;;10.6;7;;;;;;;3.78;81.31543;944.3897;;;;
2020/01/18 03:07:47;;;;;;;11.1;6.5;;;;;;;3.74;81.41016;944.4515;;;;
2020/01/18 03:10:12;;;;;;;9.4;6.2;;;;;;;3.83;81.41406;944.4942;;;;
2020/01/18 03:12:37;;;;;;;10.2;6.3;;;;;;;3.9;81.5293;944.4737;;;;
2020/01/18 03:15:56;;;;;;;14.4;6.7;;;;;;;4;80.93164;944.5193;;;;
2020/01/18 03:20:08;;;;;;;12.5;6.9;;;;;;;4.02;80.51758;944.5195;;;;
2020/01/18 03:23:17;;;;;;;7.8;5.4;;;;;;;3.94;80.5918;944.4938;;;;
2020/01/18 03:25:30;;;;;;;8.8;6;;;;;;;3.94;80.99609;944.5748;;;;
2020/01/18 03:27:55;;;;;;;12.8;8.4;;;;;;;4;80.99707;944.4813;;;;
2020/01/18 03:30:20;;;;;;;11.8;6.5;;;;;;;3.99;80.90527;944.5984;;;;
2020/01/18 03:32:45;;;;;;;9.8;5.9;;;;;;;3.85;81.30664;944.5772;;;;
2020/01/18 03:35:10;;;;;;;9.1;5.5;;;;;;;3.83;81.66113;944.543;;;;
2020/01/18 03:37:35;;;;;;;8.2;5.8;;;;;;;3.91;81.40723;944.5671;;;;
2020/01/18 03:40:00;;;;;;;11;6.1;;;;;;;3.91;81.24023;944.5658;;;;
2020/01/18 03:42:25;;;;;;;10.5;5.6;;;;;;;3.76;81.98633;944.6311;;;;
2020/01/18 03:44:50;;;;;;;9.4;5.8;;;;;;;3.76;82.12109;944.6141;;;;
2020/01/18 03:47:15;;;;;;;8.8;5.5;;;;;;;3.78;82.05762;944.6897;;;;
2020/01/18 03:49:40;;;;;;;8.4;5.4;;;;;;;3.85;81.8125;944.7089;;;;
2020/01/18 03:52:06;;;;;;;7;5.2;;;;;;;3.88;81.73926;944.7321;;;;
2020/01/18 03:54:31;;;;;;;8;5;;;;;;;3.8;81.8584;944.7762;;;;
2020/01/18 03:56:56;;;;;;;8.4;5.2;;;;;;;3.76;82.22266;944.7794;;;;
2020/01/18 03:59:21;;;;;;;10.2;6.3;;;;;;;3.7;82.39063;944.8127;;;;
2020/01/18 04:02:30;;;;;;;11.4;6.6;;;;;;;3.64;82.73926;944.8473;;;;
2020/01/18 04:04:55;;;;;;;10.8;6.9;;;;;;;3.73;82.65527;944.803;;;;
2020/01/18 04:07:20;;;;;;;12.2;6.8;;;;;;;3.78;82.32715;944.8328;;;;
2020/01/18 04:09:45;;;;;;;11.3;6.4;;;;;;;3.73;82.45313;944.7668;;;;
2020/01/18 04:12:10;;;;;;;11.4;6.6;;;;;;;3.76;82.33496;944.9027;;;;
2020/01/18 04:14:35;;;;;;;10.6;6;;;;;;;3.73;82.64453;944.8858;;;;
2020/01/18 04:17:00;;;;;;;9.7;5.8;;;;;;;3.79;82.30859;944.9966;;;;
2020/01/18 04:19:25;;;;;;;11.1;6.1;;;;;;;3.77;82.37988;945.0056;;;;
2020/01/18 04:21:50;;;;;;;9.3;6.1;;;;;;;3.67;82.82324;945.0052;;;;
2020/01/18 04:24:15;;;;;;;10.4;6.2;;;;;;;3.59;83.2793;945.027;;;;
2020/01/18 04:26:41;;;;;;;9.2;6;;;;;;;3.61;83.24902;945.0289;;;;
2020/01/18 04:29:06;;;;;;;10.2;6.3;;;;;;;3.72;82.77539;945.071;;;;
2020/01/18 04:31:31;;;;;;;8.9;5.6;;;;;;;3.8;82.46777;945.0686;;;;
2020/01/18 04:33:56;;;;;;;8.3;5.8;;;;;;;3.81;82.27637;945.13;;;;
2020/01/18 04:36:22;;;;;;;8.3;6;;;;;;;3.85;81.94824;945.1696;;;;
2020/01/18 04:38:51;;;;;;;10;6.1;;;;;;;3.93;81.50098;945.1194;;;;
2020/01/18 04:41:11;;;;;;;9.5;6;;;;;;;3.81;81.69141;945.1794;;;;
2020/01/18 04:43:36;;;;;;;8.8;6.2;;;;;;;3.9;81.79004;945.2413;;;;
2020/01/18 04:46:01;;;;;;;9.5;5.7;;;;;;;3.89;81.63965;945.1239;;;;
2020/01/18 04:48:27;;;;;;;11.1;5.7;;;;;;;3.78;82.21484;945.2482;;;;
2020/01/18 04:50:52;;;;;;;8.9;6.4;;;;;;;3.77;82.73047;945.2248;;;;
2020/01/18 04:53:17;;;;;;;8.6;5.8;;;;;;;3.72;82.97852;945.2594;;;;
2020/01/18 04:55:42;;;;;;;10.5;6.5;;;;;;;3.73;82.99316;945.3118;;;;
2020/01/18 04:58:07;;;;;;;10.4;6.3;;;;;;;3.72;82.90137;945.2382;;;;
2020/01/18 05:00:32;;;;;;;9.1;6.1;;;;;;;3.79;82.57813;945.3448;;;;
2020/01/18 05:02:57;;;;;;;9.6;6.5;;;;;;;3.84;82.71973;945.3605;;;;
2020/01/18 05:05:23;;;;;;;10.9;6.6;;;;;;;3.85;82.66699;945.4131;;;;
2020/01/18 05:07:48;;;;;;;8.5;5.8;;;;;;;3.78;82.57422;945.4411;;;;
2020/01/18 05:10:13;;;;;;;9.5;5.4;;;;;;;3.64;83.33496;945.4558;;;;
2020/01/18 05:12:38;;;;;;;8.7;6.1;;;;;;;3.62;83.56738;945.4432;;;;
2020/01/18 05:15:03;;;;;;;9.8;6.5;;;;;;;3.73;83.31836;945.5284;;;;
2020/01/18 05:17:28;;;;;;;11;6.8;;;;;;;3.83;82.5625;945.5279;;;;
2020/01/18 05:19:54;;;;;;;10.1;7;;;;;;;3.79;82.72266;945.5973;;;;
2020/01/18 05:22:29;;;;;;;10.7;6.8;;;;;;;3.86;82.5;945.6317;;;;
2020/01/18 05:24:59;;;;;;;8.7;6.8;;;;;;;3.86;82.19727;945.6188;;;;
2020/01/18 05:27:15;;;;;;;9.5;7.1;;;;;;;3.83;82.24609;945.6473;;;;
2020/01/18 05:29:34;;;;;;;10.9;7;;;;;;;3.87;82.26563;945.6967;;;;
2020/01/18 05:32:07;;;;;;;12.1;6.9;;;;;;;3.85;82.39746;945.7327;;;;
2020/01/18 05:34:24;;;;;;;10.5;7.5;;;;;;;3.91;81.97168;945.7374;;;;
2020/01/18 05:36:49;;;;;;;12;7.5;;;;;;;3.92;81.75977;945.7756;;;;
2020/01/18 05:39:15;;;;;;;13.6;7.8;;;;;;;3.93;82.07617;945.772;;;;
2020/01/18 05:41:40;;;;;;;11.4;6.9;;;;;;;3.86;82.11816;945.8097;;;;
2020/01/18 05:44:05;;;;;;;9;6.1;;;;;;;3.72;82.97852;945.8279;;;;
2020/01/18 05:46:30;;;;;;;11.3;6.3;;;;;;;3.69;83.20898;945.8895;;;;
2020/01/18 05:48:55;;;;;;;9.1;6.2;;;;;;;3.81;82.82715;945.883;;;;
2020/01/18 05:51:21;;;;;;;12;7;;;;;;;3.87;82.27734;945.8616;;;;
2020/01/18 05:53:46;;;;;;;9.9;6.4;;;;;;;3.85;82.4873;945.9604;;;;
2020/01/18 05:56:11;;;;;;;9.8;5.9;;;;;;;3.85;82.57715;945.9952;;;;
2020/01/18 05:58:36;;;;;;;12.2;6.1;;;;;;;3.83;82.61914;945.9642;;;;
2020/01/18 06:01:01;;;;;;;10.5;6.2;;;;;;;3.72;83.11328;946.0287;;;;
2020/01/18 06:03:26;;;;;;;11.6;5.9;;;;;;;3.62;83.45508;946.0936;;;;
2020/01/18 06:05:52;;;;;;;12.3;6.1;;;;;;;3.63;83.61426;946.0611;;;;
2020/01/18 06:08:17;;;;;;;10.9;6.3;;;;;;;3.65;83.79688;946.0589;;;;
2020/01/18 06:10:42;;;;;;;8.9;5.7;;;;;;;3.7;83.51563;946.0799;;;;
2020/01/18 06:13:07;;;;;;;9.6;5.8;;;;;;;3.57;84.04004;946.1083;;;;
2020/01/18 06:15:32;;;;;;;9;6.9;;;;;;;3.56;83.96875;946.0619;;;;
2020/01/18 06:17:57;;;;;;;12.8;8.2;;;;;;;3.39;84.54297;946.0197;;;;
2020/01/18 06:20:23;;;;;;;13.9;9.2;;;;;;;3.26;85.26953;946.1008;;;;
2020/01/18 06:22:48;;;;;;;11.6;8.1;;;;;;;3.26;85.53711;946.08;;;;
2020/01/18 06:25:27;;;;;;;13.5;8.7;;;;;;;3.38;85.01074;946.1213;;;;
2020/01/18 06:27:52;;;;;;;13.5;8.5;;;;;;;3.47;84.58301;946.0286;;;;
2020/01/18 06:30:17;;;;;;;16.1;11.6;;;;;;;3.55;84.3623;946.1032;;;;
2020/01/18 06:32:42;;;;;;;15.1;11.4;;;;;;;3.56;84.00195;946.054;;;;
2020/01/18 06:35:07;;;;;;;17.2;11.7;;;;;;;3.54;83.85449;946.0753;;;;
2020/01/18 06:37:32;;;;;;;16;11.3;;;;;;;3.71;83.65039;946.1016;;;;
2020/01/18 06:39:57;;;;;;;13.9;10.1;;;;;;;3.81;82.88379;946.1328;;;;
2020/01/18 06:42:22;;;;;;;15.8;10.3;;;;;;;3.82;82.6377;946.1938;;;;
2020/01/18 06:44:47;;;;;;;16.7;9.9;;;;;;;3.67;83.56445;946.2209;;;;
2020/01/18 06:47:12;;;;;;;15.4;10.2;;;;;;;3.43;84.61719;946.3105;;;;
2020/01/18 06:49:37;;;;;;;12.1;8.8;;;;;;;3.32;85.24902;946.3178;;;;
2020/01/18 06:52:33;;;;;;;13.6;9.8;;;;;;;3.39;85.22754;946.2842;;;;
2020/01/18 06:54:36;;;;;;;14.4;9.8;;;;;;;3.51;84.76855;946.2556;;;;
2020/01/18 06:56:52;;;;;;;11.8;8.4;;;;;;;3.57;84.41016;946.1917;;;;
2020/01/18 06:59:18;;;;;;;11.5;7.3;;;;;;;3.64;84.27637;946.3077;;;;
2020/01/18 07:01:43;;;;;;;9;7;;;;;;;3.49;84.49707;946.3256;;;;
2020/01/18 07:04:08;;;;;;;10;6.5;;;;;;;3.34;85.37402;946.2178;;;;
2020/01/18 07:06:33;;;;;;;11;6.2;;;;;;;3.27;85.76563;946.3041;;;;
2020/01/18 07:08:59;;;;;;;6.9;5.8;;;;;;;3.23;86.28223;946.3042;;;;
2020/01/18 07:11:24;;;;;;;9.7;6.7;;;;;;;3.16;86.83105;946.2897;;;;
2020/01/18 07:13:50;;;;;;;10.1;6.5;;;;;;;3.27;86.54004;946.3097;;;;
2020/01/18 07:17:02;;;;;;;12.6;6.9;;;;;;;3.24;86.71484;946.3768;;;;
2020/01/18 07:18:42;;;;;;;9.5;6.4;;;;;;;3.29;86.52344;946.3981;;;;
2020/01/18 07:21:04;;;;;;;17;10.9;;;;;;;3.45;85.88086;946.4478;;;;
2020/01/18 07:23:29;;;;;;;17;11.4;;;;;;;3.57;85.21875;946.3331;;;;
2020/01/18 07:25:54;;;;;;;17.7;11.4;;;;;;;3.61;85.00391;946.4617;;;;
2020/01/18 07:28:20;;;;;;;16.3;10.4;;;;;;;3.68;84.87012;946.43;;;;
2020/01/18 07:30:45;;;;;;;13.9;10.2;;;;;;;3.8;84.21875;946.4249;;;;
2020/01/18 07:33:10;;;;;;;13.5;9.9;;;;;;;3.91;83.52246;946.4164;;;;
2020/01/18 07:35:36;;;;;;;13.4;8.5;;;;;;;3.89;83.49512;946.3853;;;;
2020/01/18 07:38:01;;;;;;;9;6.9;;;;;;;3.84;83.67578;946.4648;;;;
2020/01/18 07:40:26;;;;;;;11.5;7.1;;;;;;;3.84;83.86621;946.5601;;;;
2020/01/18 07:42:51;;;;;;;9.8;6.9;;;;;;;3.9;83.32813;946.533;;;;
2020/01/18 07:45:16;;;;;;;11.6;8.4;;;;;;;3.96;82.86816;946.5273;;;;
2020/01/18 07:47:41;;;;;;;14;10.2;;;;;;;4;82.75195;946.4897;;;;
2020/01/18 07:50:07;;;;;;;12.8;8.7;;;;;;;4.06;82.49414;946.5086;;;;
2020/01/18 07:52:32;;;;;;;14;10.3;;;;;;;4.06;82.50488;946.4899;;;;
2020/01/18 07:54:57;;;;;;;12.6;8.8;;;;;;;4.1;82.52344;946.5262;;;;
2020/01/18 07:57:22;;;;;;;11.1;8.9;;;;;;;4.13;82.37305;946.5042;;;;
2020/01/18 07:59:47;;;;;;;14.7;8.7;;;;;;;4.14;82.11621;946.4874;;;;
2020/01/18 08:02:13;;;;;;;14.6;9;;;;;;;4.15;81.9375;946.4964;;;;
2020/01/18 08:04:38;;;;;;;12.1;8.6;;;;;;;4.17;81.70508;946.5737;;;;
2020/01/18 08:07:03;;;;;;;14.8;9.4;;;;;;;4.06;81.80762;946.6106;;;;
2020/01/18 08:09:28;;;;;;;16.6;10.6;;;;;;;3.89;82.65137;946.6106;;;;
2020/01/18 08:11:54;;;;;;;15.4;9.7;;;;;;;3.96;83.10449;946.603;;;;
2020/01/18 08:14:19;;;;;;;15.2;10.1;;;;;;;4.03;82.9043;946.5994;;;;
2020/01/18 08:16:44;;;;;;;12.2;9.5;;;;;;;4.07;82.59473;946.7108;;;;
2020/01/18 08:19:09;;;;;;;12.9;9.6;;;;;;;4.08;81.98145;946.7099;;;;
2020/01/18 08:21:35;;;;;;;14.4;9.9;;;;;;;4.04;82.16406;946.7291;;;;
2020/01/18 08:24:00;;;;;;;17;10.6;;;;;;;4.03;82.03711;946.731;;;;
2020/01/18 08:26:25;;;;;;;15.1;10.5;;;;;;;3.85;82.9707;946.7458;;;;
2020/01/18 08:28:50;;;;;;;16;11.5;;;;;;;3.94;82.76172;946.6808;;;;
2020/01/18 08:31:15;;;;;;;16.1;11.7;;;;;;;4;82.4707;946.7433;;;;
2020/01/18 08:33:40;;;;;;;16.6;10.6;;;;;;;3.97;82.52148;946.7509;;;;
2020/01/18 08:36:05;;;;;;;15.9;10.2;;;;;;;4.03;82.55469;946.7419;;;;
2020/01/18 08:38:30;;;;;;;15.6;9.6;;;;;;;3.99;82.54785;946.7453;;;;
2020/01/18 08:40:56;;;;;;;15;8.3;;;;;;;3.83;82.94434;946.8425;;;;
2020/01/18 08:43:21;;;;;;;8.4;6.6;;;;;;;3.87;83.2666;946.8082;;;;
2020/01/18 08:45:46;;;;;;;9.2;6.1;;;;;;;3.91;83.33008;946.7683;;;;
2020/01/18 08:48:11;;;;;;;5.5;4.9;;;;;;;4.05;82.88574;946.7164;;;;
2020/01/18 08:50:36;;;;;;;4.5;4.1;;;;;;;4.17;82.3125;946.699;;;;
2020/01/18 08:53:01;;;;;;;4.8;3.9;;;;;;;3.9;82.31641;946.7441;;;;
2020/01/18 08:55:27;;;;;;;5.2;3.8;;;;;;;3.71;83.74023;946.7656;;;;
2020/01/18 08:57:58;;;;;;;6;4.2;;;;;;;3.83;83.31445;946.7786;;;;
2020/01/18 09:00:17;;;;;;;5;3.4;;;;;;;3.84;83.2373;946.8042;;;;
2020/01/18 09:07:59;;;;;;;4.8;3.5;;;;;;;4.19;81.76465;946.8149;;;;
2020/01/18 09:09:58;;;;;;;4.3;3.5;;;;;;;4.26;81.43164;946.8613;;;;
2020/01/18 09:12:23;;;;;;;4.4;3.7;;;;;;;4.37;80.83105;946.9017;;;;
2020/01/18 09:14:48;;;;;;;5.1;3.8;;;;;;;4.31;80.67285;946.9366;;;;
2020/01/18 09:17:13;;;;;;;5;3.9;;;;;;;4.34;80.79297;946.9667;;;;
2020/01/18 09:19:38;;;;;;;5;3.9;;;;;;;4.5;79.96582;947.0097;;;;
2020/01/18 09:22:03;;;;;;;5.8;3.9;;;;;;;4.46;79.76953;946.9222;;;;
2020/01/18 09:24:28;;;;;;;5.2;4.1;;;;;;;4.41;80.11035;946.9366;;;;
2020/01/18 09:26:54;;;;;;;4.4;4;;;;;;;4.43;79.99902;946.9111;;;;
2020/01/18 09:29:19;;;;;;;6.3;4.4;;;;;;;4.42;80.49316;946.8964;;;;
2020/01/18 09:31:44;;;;;;;8;5.1;;;;;;;4.19;81.16797;946.9963;;;;
2020/01/18 09:34:09;;;;;;;8.6;5;;;;;;;4.21;82.08496;946.9283;;;;
2020/01/18 09:36:34;;;;;;;5.1;3.7;;;;;;;4.39;81.7373;946.8344;;;;
2020/01/18 09:38:59;;;;;;;4.6;3.4;;;;;;;4.56;81.66895;946.8723;;;;
2020/01/18 09:41:24;;;;;;;4.2;3.6;;;;;;;4.83;80.46777;946.9511;;;;
2020/01/18 09:43:50;;;;;;;5.3;3.8;;;;;;;5.03;79.00781;946.842;;;;
2020/01/18 09:46:15;;;;;;;4.2;3.5;;;;;;;5.18;78.30371;946.837;;;;
2020/01/18 09:48:40;;;;;;;3.3;2.9;;;;;;;5.21;78.02441;946.8116;;;;
2020/01/18 09:51:05;;;;;;;3.8;3.4;;;;;;;5.25;78.37012;946.7294;;;;
2020/01/18 09:53:30;;;;;;;5.5;4;;;;;;;5.44;77.97754;946.718;;;;
2020/01/18 09:55:55;;;;;;;4.3;3.2;;;;;;;5.73;76.43848;946.7217;;;;
2020/01/18 09:58:20;;;;;;;4;3.4;;;;;;;5.92;75.91895;946.7026;;;;
2020/01/18 10:00:46;;;;;;;2.9;2.5;;;;;;;5.96;75.4502;946.6399;;;;
2020/01/18 10:03:11;;;;;;;4.9;3.4;;;;;;;6.14;74.55762;946.6484;;;;
2020/01/18 10:05:37;;;;;;;3.8;3.4;;;;;;;6.13;73.75195;946.6342;;;;
2020/01/18 10:08:02;;;;;;;4;3.6;;;;;;;6.21;73.73145;946.6395;;;;
2020/01/18 10:10:27;;;;;;;11.3;7;;;;;;;6.08;74.3877;946.5717;;;;
2020/01/18 10:12:52;;;;;;;11.9;8.9;;;;;;;5.81;76.10254;946.5919;;;;
2020/01/18 10:15:17;;;;;;;10.6;8.5;;;;;;;5.56;76.46582;946.5069;;;;
2020/01/18 10:17:42;;;;;;;8.3;6.9;;;;;;;5.41;77.09277;946.5314;;;;
2020/01/18 10:20:07;;;;;;;9.5;8;;;;;;;5.44;77.35645;946.5356;;;;
2020/01/18 10:22:33;;;;;;;12.6;8.3;;;;;;;5.62;77.53613;946.4849;;;;
2020/01/18 10:24:58;;;;;;;10.8;8.8;;;;;;;5.77;76.94141;946.4089;;;;
2020/01/18 10:27:23;;;;;;;9.1;7.5;;;;;;;5.68;76.31738;946.426;;;;
2020/01/18 10:29:49;;;;;;;145.8;120.7;;;;;;;5.91;76.32324;946.4216;;;;
2020/01/18 10:32:14;;;;;;;13.1;11.1;;;;;;;6.29;75.75781;946.4038;;;;
2020/01/18 10:34:39;;;;;;;7.2;5.9;;;;;;;6.57;74.30273;946.4147;;;;
2020/01/18 10:37:04;;;;;;;7.9;6.3;;;;;;;6.7;74.63086;946.3682;;;;
2020/01/18 10:39:29;;;;;;;8.2;7.1;;;;;;;6.93;74.10547;946.3627;;;;
2020/01/18 10:41:54;;;;;;;9.8;6.5;;;;;;;7.06;72.88281;946.3146;;;;
2020/01/18 10:44:20;;;;;;;7.7;5.9;;;;;;;6.66;72.94922;946.317;;;;
2020/01/18 10:46:45;;;;;;;7.2;5.1;;;;;;;6.23;74.0625;946.2748;;;;
2020/01/18 10:49:52;;;;;;;6.8;5.8;;;;;;;6.05;75.60156;946.25;;;;
2020/01/18 10:54:01;;;;;;;6.2;5;;;;;;;6.55;74.85449;946.2913;;;;
2020/01/18 10:58:51;;;;;;;8;7;;;;;;;6.63;73.41992;946.33;;;;
2020/01/18 11:01:16;;;;;;;7.6;6.9;;;;;;;6.77;72.57227;946.2744;;;;
2020/01/18 11:03:41;;;;;;;8.1;6.9;;;;;;;6.66;72.84766;946.257;;;;
2020/01/18 11:06:06;;;;;;;7.9;7;;;;;;;6.65;73.04785;946.2571;;;;
2020/01/18 11:08:32;;;;;;;7.7;6.8;;;;;;;6.75;72.12598;946.2742;;;;
2020/01/18 11:10:57;;;;;;;7.5;6.7;;;;;;;6.79;72.28027;946.2639;;;;
2020/01/18 11:13:22;;;;;;;7.7;6.9;;;;;;;6.84;72.5166;946.2108;;;;
2020/01/18 11:15:47;;;;;;;7.7;6.4;;;;;;;6.92;72.66602;946.1939;;;;
2020/01/18 11:18:12;;;;;;;7.9;6.7;;;;;;;6.91;72.66309;946.1624;;;;
2020/01/18 11:20:37;;;;;;;7.4;6.6;;;;;;;6.91;72.8457;946.0675;;;;
2020/01/18 11:23:02;;;;;;;7.5;6.7;;;;;;;6.84;73.55762;946.0942;;;;
2020/01/18 11:25:27;;;;;;;10.1;8.3;;;;;;;6.41;74.16211;946.0985;;;;
2020/01/18 11:27:53;;;;;;;9.8;8.7;;;;;;;6.27;75.73242;946.0036;;;;
2020/01/18 11:30:18;;;;;;;8.9;7.7;;;;;;;6.41;75.47363;946.0248;;;;
2020/01/18 11:32:43;;;;;;;8.6;6.4;;;;;;;6.43;75.33008;946.0073;;;;
2020/01/18 11:35:08;;;;;;;6.9;6.2;;;;;;;6.39;76.11523;946.0192;;;;
2020/01/18 11:37:33;;;;;;;8.9;6.2;;;;;;;6.42;75.4541;945.9891;;;;
2020/01/18 11:39:58;;;;;;;6.7;4.9;;;;;;;6.32;75.24414;946.0103;;;;
2020/01/18 11:42:24;;;;;;;4.4;4;;;;;;;6.36;75.84863;946.0298;;;;
2020/01/18 11:44:48;;;;;;;6.3;4.6;;;;;;;6.42;74.48145;945.985;;;;
2020/01/18 11:47:13;;;;;;;5.2;4.7;;;;;;;6.2;74.28418;946.0103;;;;
2020/01/18 11:49:39;;;;;;;5.5;5;;;;;;;6.17;74.2666;945.978;;;;
2020/01/18 11:52:04;;;;;;;6.3;5.1;;;;;;;6.26;74.58691;946.0371;;;;
2020/01/18 11:54:29;;;;;;;6.7;5.5;;;;;;;6.14;75.22363;946.0095;;;;
2020/01/18 11:56:54;;;;;;;5.6;5.1;;;;;;;6.2;75.50488;945.9406;;;;
2020/01/18 11:59:19;;;;;;;5.7;4.7;;;;;;;6.31;75.5127;945.9791;;;;
2020/01/18 12:01:44;;;;;;;5;4.5;;;;;;;6.38;75.59277;945.9128;;;;
2020/01/18 12:04:09;;;;;;;4.5;3.3;;;;;;;6.44;75.35352;945.8953;;;;
2020/01/18 12:06:34;;;;;;;4.1;2.8;;;;;;;6.33;75.69629;945.8791;;;;
2020/01/18 12:09:02;;;;;;;6.7;2.6;;;;;;;6.12;75.56934;945.8884;;;;
2020/01/18 12:11:25;;;;;;;4;2.5;;;;;;;6.13;75.31152;945.8729;;;;
2020/01/18 12:13:50;;;;;;;3.9;2.5;;;;;;;6.13;75.36816;945.8356;;;;
2020/01/18 12:16:15;;;;;;;5.7;2.9;;;;;;;6.1;75.46484;945.8475;;;;
2020/01/18 12:18:40;;;;;;;5.1;2.8;;;;;;;5.92;76.08789;945.7224;;;;
2020/01/18 12:21:05;;;;;;;5.7;3.2;;;;;;;6.08;76.13965;945.7377;;;;
2020/01/18 12:23:30;;;;;;;7.5;4.5;;;;;;;6.12;76.27051;945.7224;;;;
2020/01/18 12:25:56;;;;;;;6.4;3.7;;;;;;;6.23;75.4873;945.6753;;;;
2020/01/18 12:28:21;;;;;;;8;4.5;;;;;;;5.94;75.48145;945.6732;;;;
2020/01/18 12:30:59;;;;;;;6.4;4.3;;;;;;;5.94;76.37402;945.6836;;;;
2020/01/18 12:33:12;;;;;;;5.6;2.8;;;;;;;6.02;75.83594;945.6728;;;;
2020/01/18 12:35:36;;;;;;;4;1.6;;;;;;;6.11;74.4375;945.6485;;;;
2020/01/18 12:38:01;;;;;;;3.7;2.1;;;;;;;6.12;74.52051;945.6172;;;;
2020/01/18 12:40:29;;;;;;;4.4;2;;;;;;;6.04;74.84375;945.6553;;;;
2020/01/18 12:43:04;;;;;;;4.1;2.3;;;;;;;5.98;75.26172;945.6384;;;;
2020/01/18 12:45:23;;;;;;;3.8;2.2;;;;;;;5.87;75.70703;945.5875;;;;
2020/01/18 12:50:13;;;;;;;5.2;2.4;;;;;;;6.01;74.81738;945.5627;;;;
2020/01/18 12:52:32;;;;;;;5;2.4;;;;;;;5.65;76.53613;945.4457;;;;
2020/01/18 12:54:57;;;;;;;4;2.1;;;;;;;5.54;76.76563;945.4938;;;;
2020/01/18 12:57:23;;;;;;;7;3;;;;;;;5.43;77.80664;945.394;;;;
2020/01/18 12:59:48;;;;;;;7.9;3.2;;;;;;;5.61;78.30078;945.4495;;;;
2020/01/18 13:02:13;;;;;;;6.8;3.6;;;;;;;5.76;76.66895;945.4294;;;;
2020/01/18 13:04:38;;;;;;;8.4;3.2;;;;;;;5.92;76.70898;945.4305;;;;
2020/01/18 13:07:03;;;;;;;6.7;3.1;;;;;;;6.04;76.55078;945.4031;;;;
2020/01/18 13:09:29;;;;;;;6.2;2.9;;;;;;;5.7;76.87402;945.4186;;;;
2020/01/18 13:11:54;;;;;;;6.8;3.2;;;;;;;5.73;78.10938;945.4267;;;;
2020/01/18 13:14:19;;;;;;;5.5;2.6;;;;;;;5.88;76.56543;945.4596;;;;
2020/01/18 13:16:44;;;;;;;5.6;2.6;;;;;;;6.04;74.90137;945.4522;;;;
2020/01/18 13:19:09;;;;;;;5.8;2.9;;;;;;;6.11;74.6416;945.3908;;;;
2020/01/18 13:21:35;;;;;;;5.1;2.7;;;;;;;5.95;75.5957;945.4192;;;;
2020/01/18 13:24:00;;;;;;;5.7;2.8;;;;;;;5.9;75.78027;945.4261;;;;
2020/01/18 13:26:25;;;;;;;8.9;3.2;;;;;;;5.99;76.29297;945.4382;;;;
2020/01/18 13:28:50;;;;;;;6.9;3.5;;;;;;;5.91;75.75879;945.4216;;;;
2020/01/18 13:31:15;;;;;;;6.5;3.2;;;;;;;5.95;75.56152;945.469;;;;
2020/01/18 13:33:41;;;;;;;6.5;2.7;;;;;;;5.94;75.69629;945.4139;;;;
2020/01/18 13:36:06;;;;;;;6.3;2.9;;;;;;;5.91;75.32813;945.4839;;;;
2020/01/18 13:38:31;;;;;;;6.7;2.9;;;;;;;5.94;75.65234;945.4103;;;;
2020/01/18 13:40:56;;;;;;;14.5;6.2;;;;;;;5.7;77.87695;945.3931;;;;
2020/01/18 13:43:22;;;;;;;11.9;6.7;;;;;;;5.26;80.53809;945.3347;;;;
2020/01/18 13:45:47;;;;;;;17.3;8.9;;;;;;;5.17;80.56445;945.4228;;;;
2020/01/18 13:48:12;;;;;;;62;43;;;;;;;5.22;80.48633;945.3996;;;;
2020/01/18 13:50:38;;;;;;;23.2;15.2;;;;;;;5.37;79.58691;945.3801;;;;
2020/01/18 13:53:03;;;;;;;17.2;9;;;;;;;5.24;79.7666;945.3536;;;;
2020/01/18 13:55:28;;;;;;;9.6;4.2;;;;;;;5.09;79.36621;945.3384;;;;
2020/01/18 13:57:53;;;;;;;7.5;4.1;;;;;;;5.25;79.38672;945.4009;;;;
2020/01/18 14:00:18;;;;;;;9.4;4.5;;;;;;;5.41;79.10059;945.4258;;;;
2020/01/18 14:02:43;;;;;;;15.2;11.5;;;;;;;5.48;78.05176;945.3762;;;;
2020/01/18 14:05:09;;;;;;;8.6;4.5;;;;;;;5.41;78.07422;945.3876;;;;
2020/01/18 14:07:34;;;;;;;7.5;3.8;;;;;;;5.41;77.78027;945.3688;;;;
2020/01/18 14:09:59;;;;;;;7.8;4.3;;;;;;;5.38;77.65137;945.3926;;;;
2020/01/18 14:12:24;;;;;;;9.9;4.6;;;;;;;5.49;77.86133;945.4295;;;;
2020/01/18 14:14:49;;;;;;;10.8;5.8;;;;;;;5.5;77.96484;945.4877;;;;
2020/01/18 14:17:15;;;;;;;11.6;7.5;;;;;;;5.57;77.82031;945.4634;;;;
2020/01/18 14:19:40;;;;;;;12.8;6.5;;;;;;;5.61;78.23633;945.4238;;;;
2020/01/18 14:22:05;;;;;;;10.2;6.5;;;;;;;5.64;77.54004;945.4967;;;;
2020/01/18 14:24:30;;;;;;;17;9;;;;;;;5.66;78.23145;945.4879;;;;
2020/01/18 14:26:55;;;;;;;21.3;12.4;;;;;;;5.54;80.07227;945.5096;;;;
2020/01/18 14:29:21;;;;;;;15.2;9.8;;;;;;;5.45;80.07813;945.5078;;;;
2020/01/18 14:31:46;;;;;;;15.9;10;;;;;;;5.41;80.33008;945.5031;;;;
2020/01/18 14:34:12;;;;;;;16;9.6;;;;;;;5.32;80.95508;945.4493;;;;
2020/01/18 14:42:28;;;;;;;28.2;20.4;;;;;;;5.11;81.56934;945.3812;;;;
2020/01/18 14:46:23;;;;;;;18.2;12.6;;;;;;;5.24;80.73828;945.4257;;;;
2020/01/18 14:48:42;;;;;;;15.3;7.3;;;;;;;5.29;80.17188;945.4727;;;;
2020/01/18 14:51:07;;;;;;;36.9;23.2;;;;;;;5.27;80.26953;945.4355;;;;
2020/01/18 14:53:33;;;;;;;14.2;9.2;;;;;;;5.25;80.5127;945.3398;;;;
2020/01/18 14:55:58;;;;;;;17.1;10.2;;;;;;;5.19;81.25977;945.4116;;;;
2020/01/18 14:58:23;;;;;;;31.5;15;;;;;;;5.01;81.88867;945.4261;;;;
2020/01/18 15:00:48;;;;;;;25.5;13.9;;;;;;;4.92;81.75977;945.4994;;;;
2020/01/18 15:03:13;;;;;;;13.3;7.1;;;;;;;4.79;82.0498;945.4777;;;;
2020/01/18 15:05:38;;;;;;;33.6;19.2;;;;;;;4.77;82.14746;945.4218;;;;
2020/01/18 15:08:03;;;;;;;15.7;8;;;;;;;4.82;81.91992;945.4683;;;;